sensor_id;sensor_type;location;lat;lon;timestamp;pressure;altitude;pressure_sealevel;temperature
68745;BMP180;66104;45.456;11.064;2023-02-26T00:01:20;98704.60;;;12.50
68745;BMP180;66104;45.456;11.064;2023-02-26T00:03:59;98712.00;;;12.50
68745;BMP180;66104;45.456;11.064;2023-02-26T00:06:36;98703.80;;;12.58
68745;BMP180;66104;45.456;11.064;2023-02-26T00:09:18;98705.60;;;12.60
68745;BMP180;66104;45.456;11.064;2023-02-26T00:11:56;98702.20;;;12.60
68745;BMP180;66104;45.456;11.064;2023-02-26T00:14:36;98704.20;;;12.64
68745;BMP180;66104;45.456;11.064;2023-02-26T00:20:23;98703.40;;;12.60
68745;BMP180;66104;45.456;11.064;2023-02-26T00:23:05;98700.60;;;12.50
68745;BMP180;66104;45.456;11.064;2023-02-26T00:25:43;98710.20;;;12.40
68745;BMP180;66104;45.456;11.064;2023-02-26T00:28:27;98711.60;;;12.40
68745;BMP180;66104;45.456;11.064;2023-02-26T00:31:05;98714.80;;;12.40
68745;BMP180;66104;45.456;11.064;2023-02-26T00:33:47;98711.60;;;12.36
68745;BMP180;66104;45.456;11.064;2023-02-26T00:36:33;98714.80;;;12.32
68745;BMP180;66104;45.456;11.064;2023-02-26T00:39:29;98715.80;;;12.32
68745;BMP180;66104;45.456;11.064;2023-02-26T00:42:14;98714.60;;;12.30
68745;BMP180;66104;45.456;11.064;2023-02-26T00:44:55;98715.60;;;12.30
68745;BMP180;66104;45.456;11.064;2023-02-26T00:47:39;98719.60;;;12.30
68745;BMP180;66104;45.456;11.064;2023-02-26T00:50:26;98715.40;;;12.30
68745;BMP180;66104;45.456;11.064;2023-02-26T00:53:16;98709.80;;;12.30
68745;BMP180;66104;45.456;11.064;2023-02-26T00:55:54;98712.80;;;12.28
68745;BMP180;66104;45.456;11.064;2023-02-26T00:58:31;98713.60;;;12.20
68745;BMP180;66104;45.456;11.064;2023-02-26T01:01:08;98707.60;;;12.10
68745;BMP180;66104;45.456;11.064;2023-02-26T01:03:48;98707.40;;;12.10
68745;BMP180;66104;45.456;11.064;2023-02-26T01:06:27;98702.60;;;12.10
68745;BMP180;66104;45.456;11.064;2023-02-26T01:09:12;98703.40;;;12.10
68745;BMP180;66104;45.456;11.064;2023-02-26T01:11:55;98709.00;;;12.16
68745;BMP180;66104;45.456;11.064;2023-02-26T01:14:36;98703.60;;;12.20
68745;BMP180;66104;45.456;11.064;2023-02-26T01:17:20;98697.80;;;12.20
68745;BMP180;66104;45.456;11.064;2023-02-26T01:20:03;98693.60;;;12.20
68745;BMP180;66104;45.456;11.064;2023-02-26T01:22:47;98692.00;;;12.20
68745;BMP180;66104;45.456;11.064;2023-02-26T01:25:36;98690.60;;;12.20
68745;BMP180;66104;45.456;11.064;2023-02-26T01:28:19;98695.00;;;12.20
68745;BMP180;66104;45.456;11.064;2023-02-26T01:31:01;98693.80;;;12.20
68745;BMP180;66104;45.456;11.064;2023-02-26T01:33:45;98695.00;;;12.20
68745;BMP180;66104;45.456;11.064;2023-02-26T01:36:26;98697.20;;;12.20
68745;BMP180;66104;45.456;11.064;2023-02-26T01:39:10;98695.80;;;12.20
68745;BMP180;66104;45.456;11.064;2023-02-26T01:41:53;98694.20;;;12.20
68745;BMP180;66104;45.456;11.064;2023-02-26T01:44:38;98687.20;;;12.12
68745;BMP180;66104;45.456;11.064;2023-02-26T01:47:22;98684.20;;;12.10
68745;BMP180;66104;45.456;11.064;2023-02-26T01:50:19;98676.20;;;12.10
68745;BMP180;66104;45.456;11.064;2023-02-26T01:53:21;98679.40;;;12.10
68745;BMP180;66104;45.456;11.064;2023-02-26T01:56:03;98671.60;;;12.10
68745;BMP180;66104;45.456;11.064;2023-02-26T01:58:43;98676.20;;;12.10
68745;BMP180;66104;45.456;11.064;2023-02-26T02:01:21;98678.60;;;12.10
68745;BMP180;66104;45.456;11.064;2023-02-26T02:03:58;98671.60;;;12.10
68745;BMP180;66104;45.456;11.064;2023-02-26T02:06:35;98668.60;;;12.10
68745;BMP180;66104;45.456;11.064;2023-02-26T02:09:11;98687.80;;;12.10
68745;BMP180;66104;45.456;11.064;2023-02-26T02:12:06;98666.80;;;12.10
68745;BMP180;66104;45.456;11.064;2023-02-26T02:14:59;98667.40;;;12.10
68745;BMP180;66104;45.456;11.064;2023-02-26T02:17:49;98669.40;;;12.10
68745;BMP180;66104;45.456;11.064;2023-02-26T02:20:56;98660.40;;;12.10
68745;BMP180;66104;45.456;11.064;2023-02-26T02:23:42;98678.80;;;12.14
68745;BMP180;66104;45.456;11.064;2023-02-26T02:26:46;98698.80;;;11.82
68745;BMP180;66104;45.456;11.064;2023-02-26T02:32:41;98732.40;;;10.74
68745;BMP180;66104;45.456;11.064;2023-02-26T02:35:27;98740.20;;;10.40
68745;BMP180;66104;45.456;11.064;2023-02-26T02:38:16;98725.80;;;10.10
68745;BMP180;66104;45.456;11.064;2023-02-26T02:41:02;98744.00;;;9.90
68745;BMP180;66104;45.456;11.064;2023-02-26T02:43:43;98769.80;;;9.68
68745;BMP180;66104;45.456;11.064;2023-02-26T02:46:26;98753.80;;;9.50
68745;BMP180;66104;45.456;11.064;2023-02-26T02:49:09;98775.60;;;9.40
68745;BMP180;66104;45.456;11.064;2023-02-26T02:51:51;98763.80;;;9.30
68745;BMP180;66104;45.456;11.064;2023-02-26T02:54:37;98785.00;;;9.20
68745;BMP180;66104;45.456;11.064;2023-02-26T02:57:22;98788.40;;;9.10
68745;BMP180;66104;45.456;11.064;2023-02-26T03:00:03;98817.20;;;9.00
68745;BMP180;66104;45.456;11.064;2023-02-26T03:02:51;98828.20;;;8.90
68745;BMP180;66104;45.456;11.064;2023-02-26T03:05:29;98834.60;;;8.80
68745;BMP180;66104;45.456;11.064;2023-02-26T03:08:12;98839.20;;;8.70
68745;BMP180;66104;45.456;11.064;2023-02-26T03:10:51;98858.20;;;8.60
68745;BMP180;66104;45.456;11.064;2023-02-26T03:13:28;98819.20;;;8.60
68745;BMP180;66104;45.456;11.064;2023-02-26T03:19:25;98856.00;;;8.50
68745;BMP180;66104;45.456;11.064;2023-02-26T03:22:11;98878.80;;;8.50
68745;BMP180;66104;45.456;11.064;2023-02-26T03:25:17;98882.40;;;8.50
68745;BMP180;66104;45.456;11.064;2023-02-26T03:28:05;98878.00;;;8.50
68745;BMP180;66104;45.456;11.064;2023-02-26T03:30:48;98907.00;;;8.40
68745;BMP180;66104;45.456;11.064;2023-02-26T03:33:36;98889.60;;;8.40
68745;BMP180;66104;45.456;11.064;2023-02-26T03:36:20;98908.60;;;8.30
68745;BMP180;66104;45.456;11.064;2023-02-26T03:39:13;98900.80;;;8.20
68745;BMP180;66104;45.456;11.064;2023-02-26T03:42:01;98903.00;;;8.20
68745;BMP180;66104;45.456;11.064;2023-02-26T03:44:52;98904.20;;;8.12
68745;BMP180;66104;45.456;11.064;2023-02-26T03:47:33;98890.80;;;8.10
68745;BMP180;66104;45.456;11.064;2023-02-26T03:50:16;98892.40;;;8.04
68745;BMP180;66104;45.456;11.064;2023-02-26T03:53:09;98911.00;;;8.00
68745;BMP180;66104;45.456;11.064;2023-02-26T03:55:58;98900.00;;;8.00
68745;BMP180;66104;45.456;11.064;2023-02-26T03:59:11;98902.00;;;8.00
68745;BMP180;66104;45.456;11.064;2023-02-26T04:01:57;98901.60;;;7.98
68745;BMP180;66104;45.456;11.064;2023-02-26T04:04:40;98941.00;;;7.90
68745;BMP180;66104;45.456;11.064;2023-02-26T04:07:19;98905.00;;;7.90
68745;BMP180;66104;45.456;11.064;2023-02-26T04:09:57;98900.20;;;7.90
68745;BMP180;66104;45.456;11.064;2023-02-26T04:12:34;98938.00;;;7.88
68745;BMP180;66104;45.456;11.064;2023-02-26T04:15:14;98919.20;;;7.80
68745;BMP180;66104;45.456;11.064;2023-02-26T04:17:52;98921.20;;;7.80
68745;BMP180;66104;45.456;11.064;2023-02-26T04:20:29;98943.20;;;7.70
68745;BMP180;66104;45.456;11.064;2023-02-26T04:23:06;98914.60;;;7.70
68745;BMP180;66104;45.456;11.064;2023-02-26T04:25:43;98903.80;;;7.60
68745;BMP180;66104;45.456;11.064;2023-02-26T04:28:22;98922.80;;;7.60
68745;BMP180;66104;45.456;11.064;2023-02-26T04:31:00;98919.60;;;7.60
68745;BMP180;66104;45.456;11.064;2023-02-26T04:33:37;98926.40;;;7.60
68745;BMP180;66104;45.456;11.064;2023-02-26T04:36:15;98905.00;;;7.60
68745;BMP180;66104;45.456;11.064;2023-02-26T04:38:52;98914.40;;;7.52
68745;BMP180;66104;45.456;11.064;2023-02-26T04:41:27;98953.20;;;7.50
68745;BMP180;66104;45.456;11.064;2023-02-26T04:44:04;98952.60;;;7.50
68745;BMP180;66104;45.456;11.064;2023-02-26T04:46:45;98949.60;;;7.50
68745;BMP180;66104;45.456;11.064;2023-02-26T04:49:21;98935.60;;;7.50
68745;BMP180;66104;45.456;11.064;2023-02-26T04:51:58;98940.20;;;7.50
68745;BMP180;66104;45.456;11.064;2023-02-26T04:54:34;98920.80;;;7.50
68745;BMP180;66104;45.456;11.064;2023-02-26T04:57:11;98906.00;;;7.50
68745;BMP180;66104;45.456;11.064;2023-02-26T04:59:51;98900.00;;;7.50
68745;BMP180;66104;45.456;11.064;2023-02-26T05:02:33;98934.40;;;7.48
68745;BMP180;66104;45.456;11.064;2023-02-26T05:05:12;98922.40;;;7.40
68745;BMP180;66104;45.456;11.064;2023-02-26T05:07:49;98921.00;;;7.40
68745;BMP180;66104;45.456;11.064;2023-02-26T05:10:28;98942.40;;;7.34
68745;BMP180;66104;45.456;11.064;2023-02-26T05:13:05;98940.20;;;7.30
68745;BMP180;66104;45.456;11.064;2023-02-26T05:15:42;98938.40;;;7.30
68745;BMP180;66104;45.456;11.064;2023-02-26T05:18:18;98940.20;;;7.30
68745;BMP180;66104;45.456;11.064;2023-02-26T05:20:58;98929.60;;;7.30
68745;BMP180;66104;45.456;11.064;2023-02-26T05:23:37;98935.80;;;7.30
68745;BMP180;66104;45.456;11.064;2023-02-26T05:26:13;98946.60;;;7.30
68745;BMP180;66104;45.456;11.064;2023-02-26T05:28:49;98943.20;;;7.30
68745;BMP180;66104;45.456;11.064;2023-02-26T05:31:25;98940.80;;;7.20
68745;BMP180;66104;45.456;11.064;2023-02-26T05:34:02;98935.40;;;7.20
68745;BMP180;66104;45.456;11.064;2023-02-26T05:36:39;98927.80;;;7.20
68745;BMP180;66104;45.456;11.064;2023-02-26T05:39:18;98960.20;;;7.12
68745;BMP180;66104;45.456;11.064;2023-02-26T05:41:56;98948.80;;;7.10
68745;BMP180;66104;45.456;11.064;2023-02-26T05:44:32;98950.40;;;7.10
68745;BMP180;66104;45.456;11.064;2023-02-26T05:47:09;98942.20;;;7.10
68745;BMP180;66104;45.456;11.064;2023-02-26T05:49:46;98975.80;;;7.10
68745;BMP180;66104;45.456;11.064;2023-02-26T05:52:23;98930.60;;;7.10
68745;BMP180;66104;45.456;11.064;2023-02-26T05:55:00;98953.80;;;7.10
68745;BMP180;66104;45.456;11.064;2023-02-26T05:57:36;98945.00;;;7.10
68745;BMP180;66104;45.456;11.064;2023-02-26T06:00:18;98942.40;;;7.10
68745;BMP180;66104;45.456;11.064;2023-02-26T06:02:56;98936.80;;;7.00
68745;BMP180;66104;45.456;11.064;2023-02-26T06:05:33;98937.00;;;7.00
68745;BMP180;66104;45.456;11.064;2023-02-26T06:08:10;98949.80;;;7.00
68745;BMP180;66104;45.456;11.064;2023-02-26T06:10:49;98956.40;;;7.00
68745;BMP180;66104;45.456;11.064;2023-02-26T06:13:26;98977.20;;;7.00
68745;BMP180;66104;45.456;11.064;2023-02-26T06:16:04;98973.80;;;6.90
68745;BMP180;66104;45.456;11.064;2023-02-26T06:18:41;98978.00;;;6.90
68745;BMP180;66104;45.456;11.064;2023-02-26T06:21:17;98976.80;;;6.90
68745;BMP180;66104;45.456;11.064;2023-02-26T06:23:54;98973.60;;;6.90
68745;BMP180;66104;45.456;11.064;2023-02-26T06:26:31;98999.40;;;6.90
68745;BMP180;66104;45.456;11.064;2023-02-26T06:29:07;98997.20;;;6.80
68745;BMP180;66104;45.456;11.064;2023-02-26T06:31:44;99010.40;;;6.84
68745;BMP180;66104;45.456;11.064;2023-02-26T06:34:21;99008.20;;;6.80
68745;BMP180;66104;45.456;11.064;2023-02-26T06:36:59;99004.80;;;6.88
68745;BMP180;66104;45.456;11.064;2023-02-26T06:39:36;99024.20;;;6.90
68745;BMP180;66104;45.456;11.064;2023-02-26T06:42:12;99027.60;;;6.82
68745;BMP180;66104;45.456;11.064;2023-02-26T06:44:52;99042.60;;;6.80
68745;BMP180;66104;45.456;11.064;2023-02-26T06:47:29;99051.00;;;6.80
68745;BMP180;66104;45.456;11.064;2023-02-26T06:50:10;99053.20;;;6.80
68745;BMP180;66104;45.456;11.064;2023-02-26T06:52:47;99036.20;;;6.80
68745;BMP180;66104;45.456;11.064;2023-02-26T06:55:25;99045.40;;;6.80
68745;BMP180;66104;45.456;11.064;2023-02-26T06:58:02;99049.00;;;6.80
68745;BMP180;66104;45.456;11.064;2023-02-26T07:00:39;99052.80;;;6.70
68745;BMP180;66104;45.456;11.064;2023-02-26T07:03:18;99054.40;;;6.70
68745;BMP180;66104;45.456;11.064;2023-02-26T07:05:56;99071.20;;;6.70
68745;BMP180;66104;45.456;11.064;2023-02-26T07:08:57;99087.80;;;6.60
68745;BMP180;66104;45.456;11.064;2023-02-26T07:11:33;99105.40;;;6.60
68745;BMP180;66104;45.456;11.064;2023-02-26T07:14:10;99118.40;;;6.60
68745;BMP180;66104;45.456;11.064;2023-02-26T07:16:46;99119.00;;;6.60
68745;BMP180;66104;45.456;11.064;2023-02-26T07:19:23;99113.40;;;6.60
68745;BMP180;66104;45.456;11.064;2023-02-26T07:21:59;99140.20;;;6.50
68745;BMP180;66104;45.456;11.064;2023-02-26T07:24:36;99120.00;;;6.50
68745;BMP180;66104;45.456;11.064;2023-02-26T07:27:13;99138.20;;;6.50
68745;BMP180;66104;45.456;11.064;2023-02-26T07:29:49;99142.80;;;6.50
68745;BMP180;66104;45.456;11.064;2023-02-26T07:32:27;99164.00;;;6.60
68745;BMP180;66104;45.456;11.064;2023-02-26T07:35:03;99169.80;;;6.60
68745;BMP180;66104;45.456;11.064;2023-02-26T07:37:39;99191.20;;;6.60
68745;BMP180;66104;45.456;11.064;2023-02-26T07:40:19;99164.40;;;6.60
68745;BMP180;66104;45.456;11.064;2023-02-26T07:42:56;99167.40;;;6.70
68745;BMP180;66104;45.456;11.064;2023-02-26T07:45:33;99180.80;;;6.70
68745;BMP180;66104;45.456;11.064;2023-02-26T07:48:10;99199.80;;;6.70
68745;BMP180;66104;45.456;11.064;2023-02-26T07:50:45;99190.20;;;6.70
68745;BMP180;66104;45.456;11.064;2023-02-26T07:53:22;99218.60;;;6.70
68745;BMP180;66104;45.456;11.064;2023-02-26T07:55:59;99220.00;;;6.80
68745;BMP180;66104;45.456;11.064;2023-02-26T07:58:35;99219.00;;;6.80
68745;BMP180;66104;45.456;11.064;2023-02-26T08:01:11;99209.80;;;6.84
68745;BMP180;66104;45.456;11.064;2023-02-26T08:03:48;99211.20;;;6.90
68745;BMP180;66104;45.456;11.064;2023-02-26T08:06:24;99231.00;;;6.90
68745;BMP180;66104;45.456;11.064;2023-02-26T08:09:01;99252.80;;;6.90
68745;BMP180;66104;45.456;11.064;2023-02-26T08:11:38;99255.60;;;7.00
68745;BMP180;66104;45.456;11.064;2023-02-26T08:14:16;99272.00;;;7.00
68745;BMP180;66104;45.456;11.064;2023-02-26T08:16:54;99265.60;;;7.00
68745;BMP180;66104;45.456;11.064;2023-02-26T08:19:31;99259.20;;;7.08
68745;BMP180;66104;45.456;11.064;2023-02-26T08:22:08;99275.80;;;7.10
68745;BMP180;66104;45.456;11.064;2023-02-26T08:24:45;99264.80;;;7.10
68745;BMP180;66104;45.456;11.064;2023-02-26T08:27:22;99273.80;;;7.16
68745;BMP180;66104;45.456;11.064;2023-02-26T08:29:58;99271.80;;;7.20
68745;BMP180;66104;45.456;11.064;2023-02-26T08:32:35;99275.80;;;7.20
68745;BMP180;66104;45.456;11.064;2023-02-26T08:35:13;99286.80;;;7.30
68745;BMP180;66104;45.456;11.064;2023-02-26T08:37:50;99289.20;;;7.30
68745;BMP180;66104;45.456;11.064;2023-02-26T08:40:28;99290.00;;;7.30
68745;BMP180;66104;45.456;11.064;2023-02-26T08:43:04;99304.40;;;7.30
68745;BMP180;66104;45.456;11.064;2023-02-26T08:45:41;99292.20;;;7.30
68745;BMP180;66104;45.456;11.064;2023-02-26T08:48:18;99285.00;;;7.40
68745;BMP180;66104;45.456;11.064;2023-02-26T08:50:55;99295.60;;;7.40
68745;BMP180;66104;45.456;11.064;2023-02-26T08:53:32;99309.40;;;7.40
68745;BMP180;66104;45.456;11.064;2023-02-26T08:56:10;99306.80;;;7.46
68745;BMP180;66104;45.456;11.064;2023-02-26T08:58:46;99311.00;;;7.50
68745;BMP180;66104;45.456;11.064;2023-02-26T09:01:23;99303.40;;;7.50
68745;BMP180;66104;45.456;11.064;2023-02-26T09:04:01;99307.00;;;7.50
68745;BMP180;66104;45.456;11.064;2023-02-26T09:06:37;99323.60;;;7.60
68745;BMP180;66104;45.456;11.064;2023-02-26T09:09:14;99330.00;;;7.60
68745;BMP180;66104;45.456;11.064;2023-02-26T09:11:51;99305.40;;;7.60
68745;BMP180;66104;45.456;11.064;2023-02-26T09:14:29;99302.60;;;7.60
68745;BMP180;66104;45.456;11.064;2023-02-26T09:17:06;99309.60;;;7.66
68745;BMP180;66104;45.456;11.064;2023-02-26T09:19:42;99315.60;;;7.70
68745;BMP180;66104;45.456;11.064;2023-02-26T09:22:20;99324.00;;;7.70
68745;BMP180;66104;45.456;11.064;2023-02-26T09:24:57;99325.60;;;7.70
68745;BMP180;66104;45.456;11.064;2023-02-26T09:27:34;99345.20;;;7.80
68745;BMP180;66104;45.456;11.064;2023-02-26T09:30:17;99329.60;;;7.80
68745;BMP180;66104;45.456;11.064;2023-02-26T09:32:54;99332.60;;;7.80
68745;BMP180;66104;45.456;11.064;2023-02-26T09:35:31;99340.00;;;7.90
68745;BMP180;66104;45.456;11.064;2023-02-26T09:38:07;99347.60;;;7.90
68745;BMP180;66104;45.456;11.064;2023-02-26T09:40:52;99348.20;;;7.90
68745;BMP180;66104;45.456;11.064;2023-02-26T09:43:51;99350.00;;;7.94
68745;BMP180;66104;45.456;11.064;2023-02-26T09:46:40;99350.40;;;8.00
68745;BMP180;66104;45.456;11.064;2023-02-26T09:49:26;99350.00;;;8.00
68745;BMP180;66104;45.456;11.064;2023-02-26T09:52:16;99350.00;;;8.00
68745;BMP180;66104;45.456;11.064;2023-02-26T09:54:59;99362.00;;;8.10
68745;BMP180;66104;45.456;11.064;2023-02-26T09:57:38;99346.60;;;8.10
68745;BMP180;66104;45.456;11.064;2023-02-26T10:00:31;99354.40;;;8.20
68745;BMP180;66104;45.456;11.064;2023-02-26T10:03:24;99369.00;;;8.20
68745;BMP180;66104;45.456;11.064;2023-02-26T10:06:27;99363.40;;;8.20
68745;BMP180;66104;45.456;11.064;2023-02-26T10:09:21;99355.20;;;8.20
68745;BMP180;66104;45.456;11.064;2023-02-26T10:12:07;99357.00;;;8.30
68745;BMP180;66104;45.456;11.064;2023-02-26T10:14:56;99351.60;;;8.30
68745;BMP180;66104;45.456;11.064;2023-02-26T10:17:46;99360.40;;;8.40
68745;BMP180;66104;45.456;11.064;2023-02-26T10:20:30;99344.40;;;8.40
68745;BMP180;66104;45.456;11.064;2023-02-26T10:23:19;99352.20;;;8.50
68745;BMP180;66104;45.456;11.064;2023-02-26T10:26:06;99351.80;;;8.50
68745;BMP180;66104;45.456;11.064;2023-02-26T10:29:01;99344.60;;;8.60
68745;BMP180;66104;45.456;11.064;2023-02-26T10:31:48;99359.40;;;8.60
68745;BMP180;66104;45.456;11.064;2023-02-26T10:34:31;99362.80;;;8.60
68745;BMP180;66104;45.456;11.064;2023-02-26T10:37:19;99357.40;;;8.60
68745;BMP180;66104;45.456;11.064;2023-02-26T10:40:05;99380.00;;;8.70
68745;BMP180;66104;45.456;11.064;2023-02-26T10:42:49;99364.20;;;8.70
68745;BMP180;66104;45.456;11.064;2023-02-26T10:45:46;99373.60;;;8.70
68745;BMP180;66104;45.456;11.064;2023-02-26T10:51:34;99372.40;;;8.70
68745;BMP180;66104;45.456;11.064;2023-02-26T10:54:32;99386.00;;;8.70
68745;BMP180;66104;45.456;11.064;2023-02-26T10:57:18;99382.40;;;8.70
68745;BMP180;66104;45.456;11.064;2023-02-26T10:59:55;99380.80;;;8.70
68745;BMP180;66104;45.456;11.064;2023-02-26T11:02:44;99384.60;;;8.70
68745;BMP180;66104;45.456;11.064;2023-02-26T11:05:26;99389.60;;;8.70
68745;BMP180;66104;45.456;11.064;2023-02-26T11:08:10;99388.20;;;8.68
68745;BMP180;66104;45.456;11.064;2023-02-26T11:10:53;99377.00;;;8.70
68745;BMP180;66104;45.456;11.064;2023-02-26T11:13:33;99386.40;;;8.70
68745;BMP180;66104;45.456;11.064;2023-02-26T11:16:16;99390.60;;;8.70
68745;BMP180;66104;45.456;11.064;2023-02-26T11:18:55;99389.40;;;8.70
68745;BMP180;66104;45.456;11.064;2023-02-26T11:21:39;99377.20;;;8.70
68745;BMP180;66104;45.456;11.064;2023-02-26T11:24:20;99389.80;;;8.78
68745;BMP180;66104;45.456;11.064;2023-02-26T11:27:06;99401.00;;;8.80
68745;BMP180;66104;45.456;11.064;2023-02-26T11:29:52;99400.40;;;8.80
68745;BMP180;66104;45.456;11.064;2023-02-26T11:32:34;99396.00;;;8.80
68745;BMP180;66104;45.456;11.064;2023-02-26T11:35:16;99417.80;;;8.80
68745;BMP180;66104;45.456;11.064;2023-02-26T11:37:57;99392.60;;;8.80
68745;BMP180;66104;45.456;11.064;2023-02-26T11:40:41;99411.60;;;8.80
68745;BMP180;66104;45.456;11.064;2023-02-26T11:43:22;99398.80;;;8.80
68745;BMP180;66104;45.456;11.064;2023-02-26T11:46:02;99404.60;;;8.80
68745;BMP180;66104;45.456;11.064;2023-02-26T11:48:46;99403.00;;;8.80
68745;BMP180;66104;45.456;11.064;2023-02-26T11:51:26;99386.40;;;8.80
68745;BMP180;66104;45.456;11.064;2023-02-26T11:54:09;99389.80;;;8.88
68745;BMP180;66104;45.456;11.064;2023-02-26T11:57:02;99388.60;;;8.90
68745;BMP180;66104;45.456;11.064;2023-02-26T11:59:46;99400.80;;;8.90
68745;BMP180;66104;45.456;11.064;2023-02-26T12:02:26;99387.80;;;8.90
68745;BMP180;66104;45.456;11.064;2023-02-26T12:05:16;99389.40;;;8.90
68745;BMP180;66104;45.456;11.064;2023-02-26T12:07:53;99407.20;;;8.90
68745;BMP180;66104;45.456;11.064;2023-02-26T12:10:42;99394.20;;;8.90
68745;BMP180;66104;45.456;11.064;2023-02-26T12:13:30;99390.80;;;8.90
68745;BMP180;66104;45.456;11.064;2023-02-26T12:16:21;99393.20;;;8.90
68745;BMP180;66104;45.456;11.064;2023-02-26T12:19:08;99400.40;;;8.90
68745;BMP180;66104;45.456;11.064;2023-02-26T12:22:16;99397.60;;;8.90
68745;BMP180;66104;45.456;11.064;2023-02-26T12:32:00;99397.00;;;8.90
68745;BMP180;66104;45.456;11.064;2023-02-26T12:38:03;99405.00;;;8.90
68745;BMP180;66104;45.456;11.064;2023-02-26T12:44:18;99416.60;;;8.90
68745;BMP180;66104;45.456;11.064;2023-02-26T12:47:22;99420.20;;;8.90
68745;BMP180;66104;45.456;11.064;2023-02-26T12:53:47;99417.80;;;8.90
68745;BMP180;66104;45.456;11.064;2023-02-26T13:00:25;99416.00;;;8.98
68745;BMP180;66104;45.456;11.064;2023-02-26T13:03:46;99420.40;;;8.90
68745;BMP180;66104;45.456;11.064;2023-02-26T13:09:54;99421.40;;;8.90
68745;BMP180;66104;45.456;11.064;2023-02-26T13:12:46;99426.00;;;8.80
68745;BMP180;66104;45.456;11.064;2023-02-26T13:15:58;99424.40;;;8.70
68745;BMP180;66104;45.456;11.064;2023-02-26T13:18:45;99433.80;;;8.70
68745;BMP180;66104;45.456;11.064;2023-02-26T13:21:26;99431.60;;;8.70
68745;BMP180;66104;45.456;11.064;2023-02-26T13:24:11;99446.60;;;8.64
68745;BMP180;66104;45.456;11.064;2023-02-26T13:26:52;99451.40;;;8.60
68745;BMP180;66104;45.456;11.064;2023-02-26T13:29:49;99452.80;;;8.66
68745;BMP180;66104;45.456;11.064;2023-02-26T13:32:29;99457.20;;;8.68
68745;BMP180;66104;45.456;11.064;2023-02-26T13:35:15;99462.40;;;8.62
68745;BMP180;66104;45.456;11.064;2023-02-26T13:37:58;99455.80;;;8.60
68745;BMP180;66104;45.456;11.064;2023-02-26T13:40:49;99461.20;;;8.60
68745;BMP180;66104;45.456;11.064;2023-02-26T13:43:55;99468.40;;;8.60
68745;BMP180;66104;45.456;11.064;2023-02-26T13:47:10;99451.80;;;8.60
68745;BMP180;66104;45.456;11.064;2023-02-26T13:50:11;99470.40;;;8.52
68745;BMP180;66104;45.456;11.064;2023-02-26T13:53:04;99473.00;;;8.50
68745;BMP180;66104;45.456;11.064;2023-02-26T13:56:04;99472.60;;;8.50
68745;BMP180;66104;45.456;11.064;2023-02-26T13:58:50;99475.20;;;8.50
68745;BMP180;66104;45.456;11.064;2023-02-26T14:01:33;99476.80;;;8.50
68745;BMP180;66104;45.456;11.064;2023-02-26T14:04:28;99481.60;;;8.58
68745;BMP180;66104;45.456;11.064;2023-02-26T14:07:12;99491.80;;;8.52
68745;BMP180;66104;45.456;11.064;2023-02-26T14:10:00;99497.40;;;8.50
68745;BMP180;66104;45.456;11.064;2023-02-26T14:12:43;99494.00;;;8.50
68745;BMP180;66104;45.456;11.064;2023-02-26T14:15:47;99497.20;;;8.50
68745;BMP180;66104;45.456;11.064;2023-02-26T14:18:36;99498.00;;;8.50
68745;BMP180;66104;45.456;11.064;2023-02-26T14:21:52;99504.20;;;8.60
68745;BMP180;66104;45.456;11.064;2023-02-26T14:24:43;99499.80;;;8.56
68745;BMP180;66104;45.456;11.064;2023-02-26T14:27:37;99513.80;;;8.60
68745;BMP180;66104;45.456;11.064;2023-02-26T14:30:31;99516.20;;;8.60
68745;BMP180;66104;45.456;11.064;2023-02-26T14:33:17;99517.00;;;8.60
68745;BMP180;66104;45.456;11.064;2023-02-26T14:35:56;99559.20;;;8.60
68745;BMP180;66104;45.456;11.064;2023-02-26T14:38:37;99537.60;;;8.60
68745;BMP180;66104;45.456;11.064;2023-02-26T14:41:25;99540.00;;;8.50
68745;BMP180;66104;45.456;11.064;2023-02-26T14:44:11;99537.00;;;8.42
68745;BMP180;66104;45.456;11.064;2023-02-26T14:46:51;99534.80;;;8.42
68745;BMP180;66104;45.456;11.064;2023-02-26T14:49:31;99552.60;;;8.40
68745;BMP180;66104;45.456;11.064;2023-02-26T14:52:39;99556.40;;;8.50
68745;BMP180;66104;45.456;11.064;2023-02-26T14:55:58;99557.80;;;8.50
68745;BMP180;66104;45.456;11.064;2023-02-26T14:59:07;99567.00;;;8.50
68745;BMP180;66104;45.456;11.064;2023-02-26T15:02:00;99558.40;;;8.48
68745;BMP180;66104;45.456;11.064;2023-02-26T15:08:39;99584.00;;;8.40
68745;BMP180;66104;45.456;11.064;2023-02-26T15:15:09;99575.80;;;8.46
68745;BMP180;66104;45.456;11.064;2023-02-26T15:21:19;99607.00;;;8.50
68745;BMP180;66104;45.456;11.064;2023-02-26T15:24:01;99594.60;;;8.50
68745;BMP180;66104;45.456;11.064;2023-02-26T15:26:44;99604.40;;;8.40
68745;BMP180;66104;45.456;11.064;2023-02-26T15:29:26;99610.20;;;8.40
68745;BMP180;66104;45.456;11.064;2023-02-26T15:32:21;99617.40;;;8.30
68745;BMP180;66104;45.456;11.064;2023-02-26T15:35:06;99618.20;;;8.36
68745;BMP180;66104;45.456;11.064;2023-02-26T15:37:51;99625.20;;;8.30
68745;BMP180;66104;45.456;11.064;2023-02-26T15:40:29;99629.20;;;8.32
68745;BMP180;66104;45.456;11.064;2023-02-26T15:43:11;99635.60;;;8.30
68745;BMP180;66104;45.456;11.064;2023-02-26T15:45:54;99640.20;;;8.30
68745;BMP180;66104;45.456;11.064;2023-02-26T15:48:33;99648.80;;;8.30
68745;BMP180;66104;45.456;11.064;2023-02-26T15:51:18;99654.00;;;8.30
68745;BMP180;66104;45.456;11.064;2023-02-26T15:53:56;99656.60;;;8.30
68745;BMP180;66104;45.456;11.064;2023-02-26T15:56:38;99663.40;;;8.20
68745;BMP180;66104;45.456;11.064;2023-02-26T15:59:21;99668.80;;;8.20
68745;BMP180;66104;45.456;11.064;2023-02-26T16:02:02;99673.40;;;8.20
68745;BMP180;66104;45.456;11.064;2023-02-26T16:04:39;99682.00;;;8.20
68745;BMP180;66104;45.456;11.064;2023-02-26T16:07:16;99678.80;;;8.20
68745;BMP180;66104;45.456;11.064;2023-02-26T16:09:54;99687.60;;;8.20
68745;BMP180;66104;45.456;11.064;2023-02-26T16:12:38;99701.80;;;8.20
68745;BMP180;66104;45.456;11.064;2023-02-26T16:15:23;99702.80;;;8.20
68745;BMP180;66104;45.456;11.064;2023-02-26T16:18:04;99719.40;;;8.20
68745;BMP180;66104;45.456;11.064;2023-02-26T16:20:47;99723.00;;;8.20
68745;BMP180;66104;45.456;11.064;2023-02-26T16:23:28;99725.00;;;8.20
68745;BMP180;66104;45.456;11.064;2023-02-26T16:26:11;99723.40;;;8.20